PWSweather.com
Personal Weather Stations
Station Observations
GEELONGWX1
Bell Post Hill, GeelongAU

Bell Post HillGeelongAU

Lat: -38.101, Lon: 144.326

Elevation: 204

Station Type: Davis Vantage Pro2

http://www.geelongweather.com

High Low Average
Temperature 62.7°F17.1°F 48.2°F9.0°F 53.2°F11.8°F
Dew Point 52.5°F11.4°F 41.7°F5.4°F 45.9°F7.7°F
Winds 6.9 mph S11.1 mph S Calm Calm 1.6 mph 2.6 mph
Wind Gusts 12.7 mph20.4 mph -- 3.6 mph5.8 mph
Humidity 80% 66% 76%
Pressure 30.40 in1029.50 in 30.24 in1024.00 in -
Precipitation 0.01 in0.30 in - -
Hour Temp Dew Point Humidity Winds Wind Gusts Pressure Precip Precip Rate Daily Precip Total
12:00 AM 49.1°F9.5°C 42.9°F6.1°C 79% 1.2 mph SSW1.9 kmh SSW 4.6 mph7.4 kmh 30.24 in1024.0 mb - 0.00 in0.0 mm 0.00 in0.0 mm
12:10 AM 49.1°F9.5°C 42.9°F6.1°C 79% 2.3 mph S3.7 kmh S 3.5 mph5.6 kmh 30.24 in1024.0 mb - 0.00 in0.0 mm 0.00 in0.0 mm
12:20 AM 49.0°F9.4°C 42.8°F6.0°C 79% 1.2 mph S1.9 kmh S -- 30.24 in1024.0 mb - 0.00 in0.0 mm 0.00 in0.0 mm
12:30 AM 49.1°F9.5°C 42.8°F6.0°C 79% 1.2 mph SSW1.9 kmh SSW 4.6 mph7.4 kmh 30.24 in1024.0 mb - 0.00 in0.0 mm 0.00 in0.0 mm
12:40 AM 49.0°F9.4°C 42.8°F6.0°C 79% Calm Calm 3.5 mph5.6 kmh 30.24 in1024.0 mb - 0.00 in0.0 mm 0.00 in0.0 mm
12:50 AM 48.9°F9.4°C 42.7°F5.9°C 79% Calm Calm -- 30.24 in1024.0 mb - 0.00 in0.0 mm 0.00 in0.0 mm
01:00 AM 48.9°F9.4°C 42.7°F5.9°C 79% 1.2 mph S1.9 kmh S 2.3 mph3.7 kmh 30.24 in1024.0 mb - 0.00 in0.0 mm 0.00 in0.0 mm
01:10 AM 48.9°F9.4°C 42.7°F5.9°C 79% Calm Calm 5.8 mph9.3 kmh 30.24 in1024.0 mb - 0.00 in0.0 mm 0.00 in0.0 mm
01:20 AM 49.0°F9.4°C 42.8°F6.0°C 79% Calm Calm 6.9 mph11.1 kmh 30.24 in1024.0 mb - 0.00 in0.0 mm 0.00 in0.0 mm
01:30 AM 49.0°F9.4°C 42.8°F6.0°C 79% 1.2 mph SW1.9 kmh SW -- 30.24 in1024.0 mb - 0.00 in0.0 mm 0.00 in0.0 mm
01:40 AM 48.9°F9.4°C 42.7°F5.9°C 79% 3.5 mph SW5.6 kmh SW 3.5 mph5.6 kmh 30.24 in1024.0 mb - 0.00 in0.0 mm 0.00 in0.0 mm
01:50 AM 48.9°F9.4°C 42.7°F5.9°C 79% 2.3 mph SSW3.7 kmh SSW 3.5 mph5.6 kmh 30.24 in1024.0 mb - 0.00 in0.0 mm 0.00 in0.0 mm
02:00 AM 49.0°F9.4°C 42.8°F6.0°C 79% 4.6 mph S7.4 kmh S 8.1 mph13.0 kmh 30.24 in1024.0 mb - 0.00 in0.0 mm 0.00 in0.0 mm
02:10 AM 49.0°F9.4°C 42.8°F6.0°C 79% 3.5 mph SSW5.6 kmh SSW 4.6 mph7.4 kmh 30.24 in1024.0 mb - 0.00 in0.0 mm 0.00 in0.0 mm
02:20 AM 49.1°F9.5°C 42.8°F6.0°C 79% 3.5 mph SW5.6 kmh SW 5.8 mph9.3 kmh 30.24 in1024.0 mb - 0.00 in0.0 mm 0.00 in0.0 mm
02:30 AM 49.1°F9.5°C 42.9°F6.1°C 79% 2.3 mph SSW3.7 kmh SSW 5.8 mph9.3 kmh 30.24 in1024.0 mb - 0.00 in0.0 mm 0.00 in0.0 mm
02:40 AM 49.0°F9.4°C 42.8°F6.0°C 79% Calm Calm -- 30.24 in1024.0 mb - 0.00 in0.0 mm 0.00 in0.0 mm
02:50 AM 48.7°F9.3°C 42.5°F5.8°C 79% 1.2 mph SW1.9 kmh SW 3.5 mph5.6 kmh 30.24 in1024.0 mb - 0.00 in0.0 mm 0.00 in0.0 mm
03:00 AM 48.6°F9.2°C 42.4°F5.8°C 79% 1.2 mph SW1.9 kmh SW -- 30.24 in1024.0 mb - 0.00 in0.0 mm 0.00 in0.0 mm
03:10 AM 48.5°F9.2°C 42.3°F5.7°C 79% 4.6 mph SSW7.4 kmh SSW 8.1 mph13.0 kmh 30.24 in1024.0 mb - 0.00 in0.0 mm 0.00 in0.0 mm
03:20 AM 48.5°F9.2°C 42.3°F5.7°C 79% 2.3 mph SSW3.7 kmh SSW 5.8 mph9.3 kmh 30.24 in1024.0 mb - 0.00 in0.0 mm 0.00 in0.0 mm
03:30 AM 48.6°F9.2°C 42.4°F5.8°C 79% 1.2 mph S1.9 kmh S 3.5 mph5.6 kmh 30.24 in1024.0 mb - 0.00 in0.0 mm 0.00 in0.0 mm
03:40 AM 48.8°F9.3°C 42.5°F5.8°C 79% 3.5 mph SW5.6 kmh SW 4.6 mph7.4 kmh 30.24 in1024.0 mb - 0.00 in0.0 mm 0.00 in0.0 mm
03:50 AM 48.7°F9.3°C 42.5°F5.8°C 79% 1.2 mph SW1.9 kmh SW 6.9 mph11.1 kmh 30.24 in1024.0 mb - 0.00 in0.0 mm 0.00 in0.0 mm
04:00 AM 48.7°F9.3°C 42.4°F5.8°C 79% 3.5 mph SW5.6 kmh SW 6.9 mph11.1 kmh 30.24 in1024.0 mb - 0.00 in0.0 mm 0.00 in0.0 mm
04:10 AM 48.7°F9.3°C 42.1°F5.6°C 78% 1.2 mph SSW1.9 kmh SSW 4.6 mph7.4 kmh 30.24 in1024.0 mb - 0.00 in0.0 mm 0.00 in0.0 mm
04:20 AM 48.8°F9.3°C 42.2°F5.7°C 78% 3.5 mph SSW5.6 kmh SSW 5.8 mph9.3 kmh 30.25 in1024.4 mb - 0.00 in0.0 mm 0.00 in0.0 mm
04:30 AM 48.9°F9.4°C 42.7°F5.9°C 79% 1.2 mph S1.9 kmh S 5.8 mph9.3 kmh 30.25 in1024.4 mb - 0.00 in0.0 mm 0.00 in0.0 mm
04:40 AM 49.0°F9.4°C 42.8°F6.0°C 79% 1.2 mph SSW1.9 kmh SSW -- 30.25 in1024.4 mb - 0.00 in0.0 mm 0.00 in0.0 mm
04:50 AM 49.2°F9.6°C 42.6°F5.9°C 78% 4.6 mph SW7.4 kmh SW 12.7 mph20.4 kmh 30.25 in1024.4 mb - 0.00 in0.0 mm 0.00 in0.0 mm
05:00 AM 49.2°F9.6°C 42.6°F5.9°C 78% 1.2 mph SW1.9 kmh SW 5.8 mph9.3 kmh 30.25 in1024.4 mb - 0.00 in0.0 mm 0.00 in0.0 mm
05:10 AM 49.1°F9.5°C 42.5°F5.8°C 78% Calm Calm -- 30.25 in1024.4 mb - 0.00 in0.0 mm 0.00 in0.0 mm
05:20 AM 49.0°F9.4°C 42.4°F5.8°C 78% Calm Calm 5.8 mph9.3 kmh 30.26 in1024.7 mb - 0.00 in0.0 mm 0.00 in0.0 mm
05:30 AM 48.8°F9.3°C 42.3°F5.7°C 78% 1.2 mph SSW1.9 kmh SSW 3.5 mph5.6 kmh 30.26 in1024.7 mb - 0.00 in0.0 mm 0.00 in0.0 mm
05:40 AM 48.7°F9.3°C 42.1°F5.6°C 78% 2.3 mph SSW3.7 kmh SSW 3.5 mph5.6 kmh 30.26 in1024.7 mb - 0.00 in0.0 mm 0.00 in0.0 mm
05:50 AM 48.5°F9.2°C 42.0°F5.6°C 78% 1.2 mph S1.9 kmh S 3.5 mph5.6 kmh 30.26 in1024.7 mb - 0.00 in0.0 mm 0.00 in0.0 mm
06:00 AM 48.5°F9.2°C 42.0°F5.6°C 78% 2.3 mph SSW3.7 kmh SSW 2.3 mph3.7 kmh 30.27 in1025.1 mb - 0.00 in0.0 mm 0.00 in0.0 mm
06:10 AM 48.5°F9.2°C 42.0°F5.6°C 78% 2.3 mph SSW3.7 kmh SSW 4.6 mph7.4 kmh 30.27 in1025.1 mb - 0.00 in0.0 mm 0.00 in0.0 mm
06:20 AM 48.6°F9.2°C 42.0°F5.6°C 78% 1.2 mph SW1.9 kmh SW 6.9 mph11.1 kmh 30.27 in1025.1 mb - 0.00 in0.0 mm 0.00 in0.0 mm
06:30 AM 48.7°F9.3°C 42.1°F5.6°C 78% Calm Calm 3.5 mph5.6 kmh 30.27 in1025.1 mb - 0.00 in0.0 mm 0.00 in0.0 mm
06:40 AM 48.6°F9.2°C 42.0°F5.6°C 78% Calm Calm 3.5 mph5.6 kmh 30.27 in1025.1 mb - 0.00 in0.0 mm 0.00 in0.0 mm
06:50 AM 48.5°F9.2°C 42.0°F5.6°C 78% Calm Calm -- 30.28 in1025.4 mb - 0.00 in0.0 mm 0.00 in0.0 mm
07:00 AM 48.5°F9.2°C 42.0°F5.6°C 78% 1.2 mph SSW1.9 kmh SSW 1.2 mph1.9 kmh 30.28 in1025.4 mb - 0.00 in0.0 mm 0.00 in0.0 mm
07:10 AM 48.4°F9.1°C 41.9°F5.5°C 78% 2.3 mph S3.7 kmh S 3.5 mph5.6 kmh 30.29 in1025.7 mb - 0.00 in0.0 mm 0.00 in0.0 mm
07:20 AM 48.3°F9.1°C 41.8°F5.4°C 78% Calm Calm 8.1 mph13.0 kmh 30.29 in1025.7 mb - 0.00 in0.0 mm 0.00 in0.0 mm
07:30 AM 48.2°F9.0°C 41.7°F5.4°C 78% Calm Calm -- 30.29 in1025.7 mb - 0.00 in0.0 mm 0.00 in0.0 mm
07:40 AM 49.2°F9.6°C 42.6°F5.9°C 78% 4.6 mph SSW7.4 kmh SSW 6.9 mph11.1 kmh 30.30 in1026.1 mb - 0.00 in0.0 mm 0.00 in0.0 mm
07:50 AM 49.2°F9.6°C 42.6°F5.9°C 78% 2.3 mph SW3.7 kmh SW 6.9 mph11.1 kmh 30.30 in1026.1 mb - 0.00 in0.0 mm 0.00 in0.0 mm
08:00 AM 49.4°F9.7°C 42.9°F6.1°C 78% 1.2 mph S1.9 kmh S 5.8 mph9.3 kmh 30.30 in1026.1 mb - 0.00 in0.0 mm 0.00 in0.0 mm
08:10 AM 49.9°F9.9°C 43.3°F6.3°C 78% 2.3 mph SSW3.7 kmh SSW 4.6 mph7.4 kmh 30.30 in1026.1 mb - 0.00 in0.0 mm 0.00 in0.0 mm
08:20 AM 50.3°F10.2°C 43.7°F6.5°C 78% 2.3 mph SW3.7 kmh SW 4.6 mph7.4 kmh 30.30 in1026.1 mb - 0.00 in0.0 mm 0.00 in0.0 mm
08:30 AM 50.4°F10.2°C 43.8°F6.6°C 78% 1.2 mph SW1.9 kmh SW 1.2 mph1.9 kmh 30.30 in1026.1 mb - 0.00 in0.0 mm 0.00 in0.0 mm
08:40 AM 50.7°F10.4°C 44.1°F6.7°C 78% 2.3 mph SSW3.7 kmh SSW 4.6 mph7.4 kmh 30.31 in1026.4 mb - 0.00 in0.0 mm 0.00 in0.0 mm
08:50 AM 51.1°F10.6°C 44.5°F6.9°C 78% 2.3 mph SW3.7 kmh SW 4.6 mph7.4 kmh 30.31 in1026.4 mb - 0.01 in0.3 mm 0.01 in0.3 mm
09:00 AM 52.5°F11.4°C 45.8°F7.7°C 78% 4.6 mph SSW7.4 kmh SSW 8.1 mph13.0 kmh 30.30 in1026.1 mb - 0.00 in0.0 mm 0.01 in0.3 mm
09:10 AM 53.4°F11.9°C 46.7°F8.2°C 78% 5.8 mph S9.3 kmh S 6.9 mph11.1 kmh 30.31 in1026.4 mb - 0.00 in0.0 mm 0.01 in0.3 mm
09:20 AM 54.9°F12.7°C 48.2°F9.0°C 78% 1.2 mph S1.9 kmh S 4.6 mph7.4 kmh 30.30 in1026.1 mb - 0.00 in0.0 mm 0.01 in0.3 mm
09:30 AM 55.3°F12.9°C 48.9°F9.4°C 79% 5.8 mph S9.3 kmh S 9.2 mph14.8 kmh 30.31 in1026.4 mb - 0.00 in0.0 mm 0.01 in0.3 mm
09:40 AM 54.7°F12.6°C 48.6°F9.2°C 80% 5.8 mph S9.3 kmh S 9.2 mph14.8 kmh 30.31 in1026.4 mb - 0.00 in0.0 mm 0.01 in0.3 mm
09:50 AM 55.2°F12.9°C 49.1°F9.5°C 80% 5.8 mph S9.3 kmh S 9.2 mph14.8 kmh 30.31 in1026.4 mb - 0.00 in0.0 mm 0.01 in0.3 mm
10:00 AM 55.8°F13.2°C 49.7°F9.8°C 80% 3.5 mph SSW5.6 kmh SSW 10.4 mph16.7 kmh 30.31 in1026.4 mb - 0.00 in0.0 mm 0.01 in0.3 mm
10:10 AM 55.7°F13.2°C 49.6°F9.8°C 80% 4.6 mph SSW7.4 kmh SSW 8.1 mph13.0 kmh 30.31 in1026.4 mb - 0.00 in0.0 mm 0.01 in0.3 mm
10:20 AM 57.9°F14.4°C 51.1°F10.6°C 78% 5.8 mph S9.3 kmh S 10.4 mph16.7 kmh 30.31 in1026.4 mb - 0.00 in0.0 mm 0.01 in0.3 mm
10:30 AM 59.0°F15.0°C 51.8°F11.0°C 77% 4.6 mph S7.4 kmh S 5.8 mph9.3 kmh 30.31 in1026.4 mb - 0.00 in0.0 mm 0.01 in0.3 mm
10:40 AM 60.3°F15.7°C 52.3°F11.3°C 75% 5.8 mph SSW9.3 kmh SSW 8.1 mph13.0 kmh 30.31 in1026.4 mb - 0.00 in0.0 mm 0.01 in0.3 mm
10:50 AM 60.9°F16.1°C 52.5°F11.4°C 74% 1.2 mph SSW1.9 kmh SSW 9.2 mph14.8 kmh 30.31 in1026.4 mb - 0.00 in0.0 mm 0.01 in0.3 mm
11:00 AM 60.8°F16.0°C 51.7°F10.9°C 72% 6.9 mph S11.1 kmh S 11.5 mph18.5 kmh 30.31 in1026.4 mb - 0.00 in0.0 mm 0.01 in0.3 mm
11:10 AM 59.8°F15.4°C 50.4°F10.2°C 71% 5.8 mph S9.3 kmh S 11.5 mph18.5 kmh 30.30 in1026.1 mb - 0.00 in0.0 mm 0.01 in0.3 mm
11:20 AM 59.5°F15.3°C 50.5°F10.3°C 72% 1.2 mph S1.9 kmh S 10.4 mph16.7 kmh 30.30 in1026.1 mb - 0.00 in0.0 mm 0.01 in0.3 mm
11:30 AM 59.4°F15.2°C 50.4°F10.2°C 72% Calm Calm -- 30.30 in1026.1 mb - 0.00 in0.0 mm 0.01 in0.3 mm
11:40 AM 60.9°F16.1°C 50.2°F10.1°C 68% 5.8 mph S9.3 kmh S 11.5 mph18.5 kmh 30.30 in1026.1 mb - 0.00 in0.0 mm 0.01 in0.3 mm
11:50 AM 60.9°F16.1°C 51.4°F10.8°C 71% 6.9 mph S11.1 kmh S 11.5 mph18.5 kmh 30.30 in1026.1 mb - 0.00 in0.0 mm 0.01 in0.3 mm
12:00 PM 62.7°F17.1°C 52.4°F11.3°C 69% 4.6 mph S7.4 kmh S 11.5 mph18.5 kmh 30.30 in1026.1 mb - 0.00 in0.0 mm 0.01 in0.3 mm
12:10 PM 61.8°F16.6°C 50.4°F10.2°C 66% 1.2 mph S1.9 kmh S 5.8 mph9.3 kmh 30.30 in1026.1 mb - 0.00 in0.0 mm 0.01 in0.3 mm
12:20 PM 60.4°F15.8°C 49.4°F9.7°C 67% 2.3 mph SSE3.7 kmh SSE 9.2 mph14.8 kmh 30.29 in1025.7 mb - 0.00 in0.0 mm 0.01 in0.3 mm
12:30 PM 59.4°F15.2°C 50.0°F10.0°C 71% Calm Calm -- 30.29 in1025.7 mb - 0.00 in0.0 mm 0.01 in0.3 mm
12:40 PM 59.3°F15.2°C 50.3°F10.2°C 72% 3.5 mph SE5.6 kmh SE 8.1 mph13.0 kmh 30.29 in1025.7 mb - 0.00 in0.0 mm 0.01 in0.3 mm
12:50 PM 58.9°F14.9°C 49.9°F9.9°C 72% 2.3 mph ESE3.7 kmh ESE 3.5 mph5.6 kmh 30.29 in1025.7 mb - 0.00 in0.0 mm 0.01 in0.3 mm
01:00 PM 58.8°F14.9°C 49.8°F9.9°C 72% 4.6 mph S7.4 kmh S 9.2 mph14.8 kmh 30.29 in1025.7 mb - 0.00 in0.0 mm 0.01 in0.3 mm
01:10 PM 59.1°F15.1°C 49.7°F9.8°C 71% Calm Calm -- 30.29 in1025.7 mb - 0.00 in0.0 mm 0.01 in0.3 mm
01:20 PM 60.1°F15.6°C 49.9°F9.9°C 69% Calm Calm -- 30.28 in1025.4 mb - 0.00 in0.0 mm 0.01 in0.3 mm
01:30 PM 59.4°F15.2°C 50.0°F10.0°C 71% 5.8 mph SE9.3 kmh SE 8.1 mph13.0 kmh 30.28 in1025.4 mb - 0.00 in0.0 mm 0.01 in0.3 mm
01:40 PM 57.8°F14.3°C 49.9°F9.9°C 75% Calm Calm -- 30.28 in1025.4 mb - 0.00 in0.0 mm 0.01 in0.3 mm
01:50 PM 57.5°F14.2°C 50.0°F10.0°C 76% Calm Calm -- 30.28 in1025.4 mb - 0.00 in0.0 mm 0.01 in0.3 mm
02:00 PM 58.4°F14.7°C 50.1°F10.1°C 74% Calm Calm -- 30.28 in1025.4 mb - 0.00 in0.0 mm 0.01 in0.3 mm
02:10 PM 58.4°F14.7°C 49.0°F9.4°C 71% 1.2 mph ESE1.9 kmh ESE -- 30.28 in1025.4 mb - 0.00 in0.0 mm 0.01 in0.3 mm
02:20 PM 58.0°F14.4°C 49.4°F9.7°C 73% Calm Calm -- 30.29 in1025.7 mb - 0.00 in0.0 mm 0.01 in0.3 mm
02:30 PM 57.9°F14.4°C 49.3°F9.6°C 73% Calm Calm -- 30.29 in1025.7 mb - 0.00 in0.0 mm 0.01 in0.3 mm
02:40 PM 57.5°F14.2°C 48.9°F9.4°C 73% Calm Calm -- 30.29 in1025.7 mb - 0.00 in0.0 mm 0.01 in0.3 mm
02:50 PM 57.6°F14.2°C 49.7°F9.8°C 75% Calm Calm -- 30.30 in1026.1 mb - 0.00 in0.0 mm 0.01 in0.3 mm
03:00 PM 57.7°F14.3°C 50.2°F10.1°C 76% Calm Calm -- 30.30 in1026.1 mb - 0.00 in0.0 mm 0.01 in0.3 mm
03:10 PM 58.3°F14.6°C 50.8°F10.4°C 76% Calm Calm -- 30.30 in1026.1 mb - 0.00 in0.0 mm 0.01 in0.3 mm
03:20 PM 59.1°F15.1°C 50.8°F10.4°C 74% 3.5 mph E5.6 kmh E 5.8 mph9.3 kmh 30.30 in1026.1 mb - 0.00 in0.0 mm 0.01 in0.3 mm
03:30 PM 58.5°F14.7°C 49.9°F9.9°C 73% 3.5 mph E5.6 kmh E 4.6 mph7.4 kmh 30.30 in1026.1 mb - 0.00 in0.0 mm 0.01 in0.3 mm
03:40 PM 58.0°F14.4°C 49.4°F9.7°C 73% 3.5 mph SE5.6 kmh SE 6.9 mph11.1 kmh 30.30 in1026.1 mb - 0.00 in0.0 mm 0.01 in0.3 mm
03:50 PM 57.4°F14.1°C 49.2°F9.6°C 74% 1.2 mph SE1.9 kmh SE 4.6 mph7.4 kmh 30.30 in1026.1 mb - 0.00 in0.0 mm 0.01 in0.3 mm
04:00 PM 56.9°F13.8°C 49.1°F9.5°C 75% 1.2 mph SSE1.9 kmh SSE 5.8 mph9.3 kmh 30.30 in1026.1 mb - 0.00 in0.0 mm 0.01 in0.3 mm
04:10 PM 56.8°F13.8°C 49.0°F9.4°C 75% Calm Calm -- 30.30 in1026.1 mb - 0.00 in0.0 mm 0.01 in0.3 mm
04:20 PM 57.1°F13.9°C 49.2°F9.6°C 75% Calm Calm -- 30.31 in1026.4 mb - 0.00 in0.0 mm 0.01 in0.3 mm
04:30 PM 57.0°F13.9°C 48.8°F9.3°C 74% 2.3 mph E3.7 kmh E 5.8 mph9.3 kmh 30.31 in1026.4 mb - 0.00 in0.0 mm 0.01 in0.3 mm
04:40 PM 57.0°F13.9°C 48.1°F8.9°C 72% 3.5 mph ESE5.6 kmh ESE 8.1 mph13.0 kmh 30.31 in1026.4 mb - 0.00 in0.0 mm 0.01 in0.3 mm
04:50 PM 56.8°F13.8°C 47.9°F8.8°C 72% 3.5 mph SSE5.6 kmh SSE 4.6 mph7.4 kmh 30.31 in1026.4 mb - 0.00 in0.0 mm 0.01 in0.3 mm
05:00 PM 56.8°F13.8°C 48.3°F9.1°C 73% Calm Calm 3.5 mph5.6 kmh 30.31 in1026.4 mb - 0.00 in0.0 mm 0.01 in0.3 mm
05:10 PM 56.9°F13.8°C 48.3°F9.1°C 73% 1.2 mph E1.9 kmh E 3.5 mph5.6 kmh 30.31 in1026.4 mb - 0.00 in0.0 mm 0.01 in0.3 mm
05:20 PM 56.7°F13.7°C 48.1°F8.9°C 73% Calm Calm -- 30.32 in1026.8 mb - 0.00 in0.0 mm 0.01 in0.3 mm
05:30 PM 56.6°F13.7°C 48.0°F8.9°C 73% Calm Calm -- 30.32 in1026.8 mb - 0.00 in0.0 mm 0.01 in0.3 mm
05:40 PM 56.4°F13.6°C 47.8°F8.8°C 73% 1.2 mph SE1.9 kmh SE 3.5 mph5.6 kmh 30.32 in1026.8 mb - 0.00 in0.0 mm 0.01 in0.3 mm
05:50 PM 56.1°F13.4°C 47.5°F8.6°C 73% 2.3 mph SSE3.7 kmh SSE 4.6 mph7.4 kmh 30.33 in1027.1 mb - 0.00 in0.0 mm 0.01 in0.3 mm
06:00 PM 55.8°F13.2°C 47.3°F8.5°C 73% Calm Calm 1.2 mph1.9 kmh 30.33 in1027.1 mb - 0.00 in0.0 mm 0.01 in0.3 mm
06:10 PM 55.4°F13.0°C 46.8°F8.2°C 73% Calm Calm -- 30.33 in1027.1 mb - 0.00 in0.0 mm 0.01 in0.3 mm
06:20 PM 55.1°F12.8°C 46.6°F8.1°C 73% Calm Calm -- 30.33 in1027.1 mb - 0.00 in0.0 mm 0.01 in0.3 mm
06:30 PM 54.7°F12.6°C 46.2°F7.9°C 73% Calm Calm -- 30.34 in1027.4 mb - 0.00 in0.0 mm 0.01 in0.3 mm
06:40 PM 54.3°F12.4°C 45.8°F7.7°C 73% Calm Calm -- 30.34 in1027.4 mb - 0.00 in0.0 mm 0.01 in0.3 mm
06:50 PM 53.9°F12.2°C 45.8°F7.7°C 74% Calm Calm -- 30.35 in1027.8 mb - 0.00 in0.0 mm 0.01 in0.3 mm
07:00 PM 53.5°F11.9°C 45.4°F7.4°C 74% Calm Calm -- 30.35 in1027.8 mb - 0.00 in0.0 mm 0.01 in0.3 mm
07:10 PM 53.2°F11.8°C 45.1°F7.3°C 74% Calm Calm -- 30.35 in1027.8 mb - 0.00 in0.0 mm 0.01 in0.3 mm
07:20 PM 53.1°F11.7°C 45.4°F7.4°C 75% Calm Calm -- 30.35 in1027.8 mb - 0.00 in0.0 mm 0.01 in0.3 mm
07:30 PM 52.8°F11.6°C 45.1°F7.3°C 75% Calm Calm -- 30.36 in1028.1 mb - 0.00 in0.0 mm 0.01 in0.3 mm
07:40 PM 52.6°F11.4°C 44.9°F7.2°C 75% Calm Calm -- 30.36 in1028.1 mb - 0.00 in0.0 mm 0.01 in0.3 mm
07:50 PM 52.5°F11.4°C 45.2°F7.3°C 76% Calm Calm -- 30.36 in1028.1 mb - 0.00 in0.0 mm 0.01 in0.3 mm
08:00 PM 52.5°F11.4°C 45.2°F7.3°C 76% Calm Calm -- 30.36 in1028.1 mb - 0.00 in0.0 mm 0.01 in0.3 mm
08:10 PM 52.3°F11.3°C 45.0°F7.2°C 76% Calm Calm -- 30.37 in1028.4 mb - 0.00 in0.0 mm 0.01 in0.3 mm
08:20 PM 52.2°F11.2°C 45.2°F7.3°C 77% Calm Calm -- 30.37 in1028.4 mb - 0.00 in0.0 mm 0.01 in0.3 mm
08:30 PM 52.0°F11.1°C 45.0°F7.2°C 77% Calm Calm -- 30.37 in1028.4 mb - 0.00 in0.0 mm 0.01 in0.3 mm
08:40 PM 51.7°F10.9°C 44.8°F7.1°C 77% Calm Calm -- 30.37 in1028.4 mb - 0.00 in0.0 mm 0.01 in0.3 mm
08:50 PM 51.6°F10.9°C 45.0°F7.2°C 78% Calm Calm -- 30.37 in1028.4 mb - 0.00 in0.0 mm 0.01 in0.3 mm
09:00 PM 51.4°F10.8°C 44.8°F7.1°C 78% Calm Calm -- 30.37 in1028.4 mb - 0.00 in0.0 mm 0.01 in0.3 mm
09:10 PM 51.2°F10.7°C 44.6°F7.0°C 78% Calm Calm -- 30.38 in1028.8 mb - 0.00 in0.0 mm 0.01 in0.3 mm
09:20 PM 51.2°F10.7°C 44.9°F7.2°C 79% Calm Calm -- 30.38 in1028.8 mb - 0.00 in0.0 mm 0.01 in0.3 mm
09:30 PM 51.2°F10.7°C 44.9°F7.2°C 79% Calm Calm -- 30.38 in1028.8 mb - 0.00 in0.0 mm 0.01 in0.3 mm
09:40 PM 51.2°F10.7°C 45.2°F7.3°C 80% Calm Calm -- 30.39 in1029.1 mb - 0.00 in0.0 mm 0.01 in0.3 mm
09:50 PM 51.2°F10.7°C 45.2°F7.3°C 80% Calm Calm -- 30.39 in1029.1 mb - 0.00 in0.0 mm 0.01 in0.3 mm
10:00 PM 51.3°F10.7°C 45.3°F7.4°C 80% Calm Calm -- 30.39 in1029.1 mb - 0.00 in0.0 mm 0.01 in0.3 mm
10:10 PM 51.3°F10.7°C 45.3°F7.4°C 80% Calm Calm -- 30.39 in1029.1 mb - 0.00 in0.0 mm 0.01 in0.3 mm
10:20 PM 51.2°F10.7°C 45.2°F7.3°C 80% Calm Calm -- 30.40 in1029.5 mb - 0.00 in0.0 mm 0.01 in0.3 mm
10:30 PM 51.2°F10.7°C 45.2°F7.3°C 80% 1.2 mph SSE1.9 kmh SSE -- 30.40 in1029.5 mb - 0.00 in0.0 mm 0.01 in0.3 mm
10:40 PM 51.4°F10.8°C 45.4°F7.4°C 80% Calm Calm -- 30.39 in1029.1 mb - 0.00 in0.0 mm 0.01 in0.3 mm
10:50 PM 51.6°F10.9°C 45.6°F7.6°C 80% Calm Calm -- 30.39 in1029.1 mb - 0.00 in0.0 mm 0.01 in0.3 mm
11:00 PM 51.6°F10.9°C 45.6°F7.6°C 80% Calm Calm -- 30.39 in1029.1 mb - 0.00 in0.0 mm 0.01 in0.3 mm
11:10 PM 51.5°F10.8°C 45.5°F7.5°C 80% 1.2 mph SW1.9 kmh SW 3.5 mph5.6 kmh 30.39 in1029.1 mb - 0.00 in0.0 mm 0.01 in0.3 mm
11:20 PM 51.3°F10.7°C 45.3°F7.4°C 80% Calm Calm -- 30.39 in1029.1 mb - 0.00 in0.0 mm 0.01 in0.3 mm
11:30 PM 51.2°F10.7°C 45.2°F7.3°C 80% 2.3 mph SSW3.7 kmh SSW 4.6 mph7.4 kmh 30.39 in1029.1 mb - 0.00 in0.0 mm 0.01 in0.3 mm
11:40 PM 51.1°F10.6°C 45.1°F7.3°C 80% 2.3 mph SSW3.7 kmh SSW 4.6 mph7.4 kmh 30.39 in1029.1 mb - 0.00 in0.0 mm 0.01 in0.3 mm
11:50 PM 51.0°F10.6°C 45.1°F7.3°C 80% Calm Calm -- 30.39 in1029.1 mb - 0.00 in0.0 mm 0.01 in0.3 mm